Wyoming, Pennsylvania
Current Conditions -  °F | °C
As of 11:54 AM on Thursday 23 Oct 2014 (Local Time) from KAVP Reporting Station
Overcast Overcast  
Wind Chill: 42°   Ceiling: 1300
Heat Index: 47°   Visibility: 10mi
Dew Point: 42°   Wind: 10mph
Humidity: 83%   Direction: 340°NNW
Pressure: 29.87"   Gusts: NA
Location:  41.31°N, 75.84°W
Report Text: KAVP 231554Z AUTO 34009KT 10SM OVC013 08/06 A2987 RMK AO2 RAE37 SLP115 P0001 T00830056
Loading
Personal Weather Stations






























Interactive Weather Map
Tropical Storm Tracking
New forecast layout! Learn more

10-Day Weather Forecast

Advertisements
Track Severe Weather on mobile